Geja C — VSQG6 — position and weather

sailwx.info

Track history (hours):
 
Tides and Currents Weather Stations Pressure Air Temp Water Temp Dewpoint Dewpoint Depression Visibility Wind Speed Wind Dir Waves Ship Positions

Geja C

Last reported at 2015-Jul-03 06:31 UTC. Time now 2015-Sep-03 15:13 UTC.
Position N 29°21' W 094°44'.
Warning: this ship's position is months out of date.

; draft 5.8 m.

Type: Cargo ship. MMSI: 235006360.

Date/timePositionNaut miles runAvg speedWind from/ knotsBaromVisibWave heightAir tempDewpointWater temp
2015-Jul-03 06:31N 29°21' W 094°44'1212.7
2015-Jul-03 05:33N 29°30' W 094°53'1212.4
2015-Jul-03 04:33N 29°41' W 094°59'7 6.6
2015-Jul-03 03:28N 29°44' W 095°07'6 6.0
2015-Jul-03 02:28N 29°44' W 095°13'1 1.0
2015-Jul-03 01:05N 29°43' W 095°15'0 0.0
2015-Jul-02 23:17N 29°43' W 095°15'0 0.0
2015-Jul-02 16:23N 29°43' W 095°15'0 0.0
2015-Jul-02 15:29N 29°43' W 095°15'0 0.0
2015-Jul-02 08:23N 29°43' W 095°15'0 0.0
2015-Jul-02 07:32N 29°43' W 095°15'0 0.0
2015-Jul-02 06:29N 29°43' W 095°15'0 0.0
2015-Jul-02 05:32N 29°43' W 095°15'0 0.0
2015-Jul-02 04:32N 29°43' W 095°15'0 0.0
2015-Jul-02 03:23N 29°43' W 095°15'0 0.0
2015-Jul-02 02:29N 29°43' W 095°15'0 0.0
2015-Jul-02 01:32N 29°43' W 095°15'0 0.0
2015-Jul-02 00:29N 29°43' W 095°15'0 0.0
2015-Jul-01 23:26N 29°43' W 095°15'0 0.0
2015-Jul-01 19:26N 29°43' W 095°15'0 0.0
2015-Jul-01 01:17N 29°43' W 095°15'0 0.0
2015-Jun-30 13:05N 29°43' W 095°15'  
2015-Jun-27 17:29N 29°43' W 095°15'0 0.0
2015-Jun-27 09:19N 29°43' W 095°15'0 0.0
2015-Jun-25 21:25N 29°43' W 095°15'0 0.0
2015-Jun-25 19:16N 29°43' W 095°15'0 0.0
2015-Jun-25 10:27N 29°43' W 095°15'3 2.7
2015-Jun-25 09:31N 29°44' W 095°12'6 6.3
2015-Jun-25 08:29N 29°46' W 095°05'8 8.9
2015-Jun-25 07:33N 29°40' W 094°58'1212.3
2015-Jun-25 06:33N 29°29' W 094°52'  
Track history (hours):
 
Tides and Currents Weather Stations Pressure Air Temp Water Temp Dewpoint Dewpoint Depression Visibility Wind Speed Wind Dir Waves Ship Positions

Geja C

Last reported at 2015-Jul-03 06:31 UTC. Time now 2015-Sep-03 15:13 UTC.
Position N 29°21' W 094°44'.
Warning: this ship's position is months out of date.

; draft 5.8 m.

Type: Cargo ship. MMSI: 235006360.

Date/timePositionNaut miles runAvg speedWind from/ knotsBaromVisibWave heightAir tempDewpointWater temp
2015-Jul-03 06:31N 29°21' W 094°44'1212.7
2015-Jul-03 05:33N 29°30' W 094°53'1212.4
2015-Jul-03 04:33N 29°41' W 094°59'7 6.6
2015-Jul-03 03:28N 29°44' W 095°07'6 6.0
2015-Jul-03 02:28N 29°44' W 095°13'1 1.0
2015-Jul-03 01:05N 29°43' W 095°15'0 0.0
2015-Jul-02 23:17N 29°43' W 095°15'0 0.0
2015-Jul-02 16:23N 29°43' W 095°15'0 0.0
2015-Jul-02 15:29N 29°43' W 095°15'0 0.0
2015-Jul-02 08:23N 29°43' W 095°15'0 0.0
2015-Jul-02 07:32N 29°43' W 095°15'0 0.0
2015-Jul-02 06:29N 29°43' W 095°15'0 0.0
2015-Jul-02 05:32N 29°43' W 095°15'0 0.0
2015-Jul-02 04:32N 29°43' W 095°15'0 0.0
2015-Jul-02 03:23N 29°43' W 095°15'0 0.0
2015-Jul-02 02:29N 29°43' W 095°15'0 0.0
2015-Jul-02 01:32N 29°43' W 095°15'0 0.0
2015-Jul-02 00:29N 29°43' W 095°15'0 0.0
2015-Jul-01 23:26N 29°43' W 095°15'0 0.0
2015-Jul-01 19:26N 29°43' W 095°15'0 0.0
2015-Jul-01 01:17N 29°43' W 095°15'0 0.0
2015-Jun-30 13:05N 29°43' W 095°15'  
2015-Jun-27 17:29N 29°43' W 095°15'0 0.0
2015-Jun-27 09:19N 29°43' W 095°15'0 0.0
2015-Jun-25 21:25N 29°43' W 095°15'0 0.0
2015-Jun-25 19:16N 29°43' W 095°15'0 0.0
2015-Jun-25 10:27N 29°43' W 095°15'3 2.7
2015-Jun-25 09:31N 29°44' W 095°12'6 6.3
2015-Jun-25 08:29N 29°46' W 095°05'8 8.9
2015-Jun-25 07:33N 29°40' W 094°58'1212.3
2015-Jun-25 06:33N 29°29' W 094°52'  

Dump ship's entire track history